Time;durP1;ratioP1;P1;durP2;ratioP2;P2;SDS_P1;SDS_P2;PMS_P1;PMS_P2;Temp;Humidity;BMP_temperature;BMP_pressure;BME280_temperature;BME280_humidity;BME280_pressure;Samples;Min_cycle;Max_cycle;Signal;HPM_P1;HPM_P2
2022/06/21 00:02:05;;;;;;;10.13;3.72;;;;;;;;;;5066685;28;20016;-68
2022/06/21 00:04:30;;;;;;;8.50;4.18;;;;;;;;;;5063616;28;20039;-68
2022/06/21 00:06:57;;;;;;;9.77;3.83;;;;;;;;;;5059604;28;20472;-68
2022/06/21 00:09:23;;;;;;;9.68;4.32;;;;;;;;;;5059524;28;20115;-67
2022/06/21 00:11:49;;;;;;;10.18;4.00;;;;;;;;;;5063266;28;20012;-67
2022/06/21 00:14:14;;;;;;;8.87;4.00;;;;;;;;;;5061929;28;20032;-67
2022/06/21 00:16:39;;;;;;;7.37;3.67;;;;;;;;;;5060180;28;20274;-67
2022/06/21 00:19:05;;;;;;;7.53;3.57;;;;;;;;;;5061204;28;20374;-67
2022/06/21 00:21:36;;;;;;;11.15;4.00;;;;;;;;;;5062794;28;20270;-67
2022/06/21 00:24:01;;;;;;;5.93;3.13;;;;;;;;;;5060154;28;20013;-67
2022/06/21 00:26:27;;;;;;;9.77;3.90;;;;;;;;;;5057676;28;20021;-67
2022/06/21 00:28:53;;;;;;;8.95;4.05;;;;;;;;;;5068554;28;20040;-68
2022/06/21 00:31:19;;;;;;;15.07;4.47;;;;;;;;;;5058035;28;20507;-68
2022/06/21 00:33:45;;;;;;;14.43;4.28;;;;;;;;;;5060788;28;20035;-67
2022/06/21 00:36:14;;;;;;;9.85;3.90;;;;;;;;;;5062118;28;20021;-67
2022/06/21 00:38:40;;;;;;;14.07;4.10;;;;;;;;;;5060563;28;20052;-67
2022/06/21 00:41:06;;;;;;;11.60;4.27;;;;;;;;;;5059861;28;20044;-68
2022/06/21 00:43:33;;;;;;;7.60;4.13;;;;;;;;;;5062062;28;20295;-68
2022/06/21 00:45:59;;;;;;;9.75;4.20;;;;;;;;;;5044159;28;20013;-68
2022/06/21 00:48:36;;;;;;;11.25;4.13;;;;;;;;;;5059646;28;20073;-68
2022/06/21 00:51:12;;;;;;;12.00;4.40;;;;;;;;;;5056311;28;20589;-68
2022/06/21 00:53:40;;;;;;;13.55;4.20;;;;;;;;;;5093676;22;20047;-68
2022/06/21 00:56:28;;;;;;;8.95;3.75;;;;;;;;;;5085059;28;20472;-68
2022/06/21 00:58:54;;;;;;;8.40;4.65;;;;;;;;;;5075053;28;20039;-68
2022/06/21 01:01:27;;;;;;;11.45;3.88;;;;;;;;;;5082451;28;20021;-68
2022/06/21 01:03:53;;;;;;;15.20;4.13;;;;;;;;;;5066490;28;20589;-68
2022/06/21 01:06:20;;;;;;;12.40;4.83;;;;;;;;;;5062010;28;20073;-68
2022/06/21 01:08:47;;;;;;;8.35;3.85;;;;;;;;;;5059719;28;20432;-68
2022/06/21 01:11:16;;;;;;;10.68;4.45;;;;;;;;;;5067689;28;20043;-68
2022/06/21 01:13:43;;;;;;;14.13;4.70;;;;;;;;;;5063850;28;20013;-68
2022/06/21 01:16:08;;;;;;;9.25;3.88;;;;;;;;;;5059574;28;20052;-69
2022/06/21 01:18:33;;;;;;;15.52;4.43;;;;;;;;;;5058099;28;20065;-68
2022/06/21 01:20:59;;;;;;;6.18;4.32;;;;;;;;;;5060494;28;20024;-69
2022/06/21 01:23:24;;;;;;;14.98;4.28;;;;;;;;;;5060044;28;20053;-69
2022/06/21 01:26:13;;;;;;;13.05;5.07;;;;;;;;;;5064678;28;20074;-68
2022/06/21 01:28:39;;;;;;;12.43;4.97;;;;;;;;;;5050328;28;20028;-68
2022/06/21 01:31:04;;;;;;;11.15;4.88;;;;;;;;;;5059357;28;20012;-68
2022/06/21 01:33:32;;;;;;;10.27;4.55;;;;;;;;;;5058541;28;20032;-68
2022/06/21 01:36:00;;;;;;;11.52;4.40;;;;;;;;;;5057626;28;20474;-68
2022/06/21 01:38:30;;;;;;;11.40;4.45;;;;;;;;;;5061198;28;20028;-68
2022/06/21 01:41:02;;;;;;;13.18;4.30;;;;;;;;;;5066477;28;20097;-68
2022/06/21 01:43:29;;;;;;;8.48;3.97;;;;;;;;;;5063759;28;20099;-68
2022/06/21 01:45:57;;;;;;;11.73;4.07;;;;;;;;;;5059392;28;20357;-68
2022/06/21 01:48:24;;;;;;;8.88;4.15;;;;;;;;;;5058711;28;20020;-68
2022/06/21 01:50:53;;;;;;;10.80;4.85;;;;;;;;;;5058794;28;20028;-68
2022/06/21 01:53:20;;;;;;;9.15;4.70;;;;;;;;;;5061289;28;20027;-68
2022/06/21 01:55:52;;;;;;;9.43;3.78;;;;;;;;;;5064157;28;20261;-68
2022/06/21 01:58:19;;;;;;;11.32;4.20;;;;;;;;;;5065206;28;20013;-68
2022/06/21 02:00:50;;;;;;;12.77;4.65;;;;;;;;;;5059466;28;20032;-68
2022/06/21 02:03:18;;;;;;;8.10;4.25;;;;;;;;;;5061811;28;20048;-68
2022/06/21 02:05:46;;;;;;;13.55;4.70;;;;;;;;;;5057691;28;20032;-68
2022/06/21 02:08:13;;;;;;;7.20;4.00;;;;;;;;;;5058782;28;20652;-67
2022/06/21 02:10:41;;;;;;;8.02;5.00;;;;;;;;;;5064845;28;20021;-67
2022/06/21 02:13:08;;;;;;;6.30;3.92;;;;;;;;;;5067770;28;20021;-68
2022/06/21 02:15:36;;;;;;;12.68;4.57;;;;;;;;;;5064552;28;20403;-67
2022/06/21 02:18:02;;;;;;;8.20;4.13;;;;;;;;;;5062514;28;20468;-70
2022/06/21 02:20:27;;;;;;;14.82;4.22;;;;;;;;;;5065354;28;20020;-70
2022/06/21 02:22:52;;;;;;;9.82;4.32;;;;;;;;;;5062264;28;20499;-67
2022/06/21 02:25:19;;;;;;;6.30;4.07;;;;;;;;;;5071211;28;20025;-67
2022/06/21 02:27:45;;;;;;;10.18;4.75;;;;;;;;;;5064548;28;20493;-67
2022/06/21 02:30:15;;;;;;;7.93;3.97;;;;;;;;;;5051386;28;20047;-67
2022/06/21 02:32:41;;;;;;;13.77;4.40;;;;;;;;;;5059843;28;20100;-68
2022/06/21 02:35:06;;;;;;;10.35;4.20;;;;;;;;;;5062773;28;20450;-67
2022/06/21 02:37:33;;;;;;;7.80;3.90;;;;;;;;;;5063256;28;20039;-68
2022/06/21 02:40:00;;;;;;;7.43;4.25;;;;;;;;;;5071601;28;20507;-67
2022/06/21 02:42:28;;;;;;;15.45;4.93;;;;;;;;;;5065487;28;20029;-67
2022/06/21 02:44:58;;;;;;;13.70;4.28;;;;;;;;;;5063612;28;20041;-67
2022/06/21 02:47:23;;;;;;;;;;;;;;;;;;5058727;28;20487;-68
2022/06/21 02:50:00;;;;;;;11.63;5.28;;;;;;;;;;5043375;28;20618;-67
2022/06/21 02:52:28;;;;;;;9.73;4.40;;;;;;;;;;5062545;28;20021;-68
2022/06/21 02:54:58;;;;;;;13.65;4.38;;;;;;;;;;5050340;28;20021;-68
2022/06/21 02:57:35;;;;;;;12.32;4.05;;;;;;;;;;5068234;28;20361;-67
2022/06/21 03:00:01;;;;;;;11.52;4.45;;;;;;;;;;5061463;28;20032;-67
2022/06/21 03:02:28;;;;;;;12.80;4.47;;;;;;;;;;5056161;28;20366;-67
2022/06/21 03:04:55;;;;;;;7.78;4.28;;;;;;;;;;5065151;28;20024;-67
2022/06/21 03:07:23;;;;;;;8.52;4.70;;;;;;;;;;5064739;28;20025;-68
2022/06/21 03:09:48;;;;;;;8.25;4.07;;;;;;;;;;5061106;28;20031;-68
2022/06/21 03:12:25;;;;;;;10.32;4.70;;;;;;;;;;5059913;28;20025;-67
2022/06/21 03:14:53;;;;;;;9.07;4.60;;;;;;;;;;5059725;28;20341;-67
2022/06/21 03:17:22;;;;;;;12.18;4.50;;;;;;;;;;5058771;28;20547;-68
2022/06/21 03:19:48;;;;;;;10.93;4.55;;;;;;;;;;5059264;28;20042;-68
2022/06/21 03:22:21;;;;;;;11.98;5.30;;;;;;;;;;5066022;28;20508;-67
2022/06/21 03:24:49;;;;;;;13.70;4.93;;;;;;;;;;5066338;28;20028;-67
2022/06/21 03:27:17;;;;;;;14.10;5.05;;;;;;;;;;5061552;28;20070;-70
2022/06/21 03:29:42;;;;;;;11.20;5.25;;;;;;;;;;5059792;28;20016;-70
2022/06/21 03:32:07;;;;;;;9.73;4.95;;;;;;;;;;5060655;28;20032;-67
2022/06/21 03:34:33;;;;;;;10.30;5.00;;;;;;;;;;5058846;28;20021;-68
2022/06/21 03:36:59;;;;;;;8.20;4.57;;;;;;;;;;5066867;28;20028;-70
2022/06/21 03:41:42;;;;;;;10.65;4.60;;;;;;;;;;5065281;28;20020;-68
2022/06/21 03:42:13;;;;;;;13.10;5.32;;;;;;;;;;5062995;28;20021;-68
2022/06/21 03:44:41;;;;;;;10.98;5.35;;;;;;;;;;5061019;28;20017;-70
2022/06/21 03:47:12;;;;;;;12.45;5.70;;;;;;;;;;5063560;28;20099;-69
2022/06/21 03:49:49;;;;;;;12.57;5.40;;;;;;;;;;5060801;28;20068;-68
2022/06/21 03:52:41;;;;;;;8.07;4.70;;;;;;;;;;5070389;28;20500;-68
2022/06/21 03:55:34;;;;;;;10.00;4.88;;;;;;;;;;5057161;28;20036;-68
2022/06/21 03:58:02;;;;;;;11.52;4.78;;;;;;;;;;5040303;28;20032;-69
2022/06/21 04:00:31;;;;;;;8.57;4.70;;;;;;;;;;5058637;28;20219;-68
2022/06/21 04:03:00;;;;;;;8.65;4.82;;;;;;;;;;5056530;28;20020;-68
2022/06/21 04:05:28;;;;;;;11.80;4.10;;;;;;;;;;5052156;28;20025;-68
2022/06/21 04:08:01;;;;;;;9.95;4.40;;;;;;;;;;5062712;28;20492;-68
2022/06/21 04:10:32;;;;;;;9.95;5.13;;;;;;;;;;5057558;28;20509;-68
2022/06/21 04:13:16;;;;;;;8.40;5.35;;;;;;;;;;5062286;28;20029;-68
2022/06/21 04:16:00;;;;;;;9.48;4.15;;;;;;;;;;5059365;28;20032;-68
2022/06/21 04:18:25;;;;;;;6.93;4.85;;;;;;;;;;5059584;28;20025;-68
2022/06/21 04:21:00;;;;;;;6.45;4.50;;;;;;;;;;5060642;28;20484;-68
2022/06/21 04:23:34;;;;;;;10.00;4.05;;;;;;;;;;5062515;28;20016;-68
2022/06/21 04:26:03;;;;;;;9.45;4.68;;;;;;;;;;5058797;28;20063;-68
2022/06/21 04:28:32;;;;;;;7.97;4.57;;;;;;;;;;5063516;28;20255;-68
2022/06/21 04:31:01;;;;;;;10.77;5.30;;;;;;;;;;5057144;28;20073;-68
2022/06/21 04:33:45;;;;;;;7.35;4.07;;;;;;;;;;5064194;28;20051;-68
2022/06/21 04:36:13;;;;;;;6.55;4.22;;;;;;;;;;5062031;28;20033;-68
2022/06/21 04:38:44;;;;;;;10.38;4.53;;;;;;;;;;5057297;28;20055;-68
2022/06/21 04:41:14;;;;;;;13.68;5.13;;;;;;;;;;5059811;28;20415;-68
2022/06/21 04:43:39;;;;;;;9.52;4.82;;;;;;;;;;5058742;28;20069;-68
2022/06/21 04:46:08;;;;;;;9.98;4.93;;;;;;;;;;5060054;28;21547;-67
2022/06/21 04:48:43;;;;;;;10.23;4.90;;;;;;;;;;5069151;28;20027;-68
2022/06/21 04:51:28;;;;;;;12.30;5.25;;;;;;;;;;5063610;28;20058;-68
2022/06/21 04:53:53;;;;;;;8.43;4.95;;;;;;;;;;5059680;28;20480;-70
2022/06/21 04:56:36;;;;;;;8.93;4.65;;;;;;;;;;5058799;28;20021;-69
2022/06/21 04:59:02;;;;;;;13.82;5.68;;;;;;;;;;5054463;28;20028;-69
2022/06/21 05:01:30;;;;;;;15.10;4.60;;;;;;;;;;5061452;28;20023;-69
2022/06/21 05:04:00;;;;;;;11.73;4.15;;;;;;;;;;5060912;28;20473;-69
2022/06/21 05:06:25;;;;;;;6.32;3.92;;;;;;;;;;5061456;28;20580;-69
2022/06/21 05:08:51;;;;;;;8.55;4.53;;;;;;;;;;5061325;28;20112;-70
2022/06/21 05:11:16;;;;;;;13.13;4.68;;;;;;;;;;5059418;28;20036;-70
2022/06/21 05:13:43;;;;;;;16.60;4.65;;;;;;;;;;5048329;28;20032;-70
2022/06/21 05:16:16;;;;;;;9.02;4.50;;;;;;;;;;5063234;28;20024;-70
2022/06/21 05:18:48;;;;;;;10.20;4.90;;;;;;;;;;5064010;28;20070;-68
2022/06/21 05:21:17;;;;;;;12.75;4.63;;;;;;;;;;5057391;28;20035;-68
2022/06/21 05:23:42;;;;;;;11.07;4.88;;;;;;;;;;5059713;28;20039;-68
2022/06/21 05:26:11;;;;;;;20.48;4.78;;;;;;;;;;5061759;28;20508;-69
2022/06/21 05:28:43;;;;;;;16.30;4.90;;;;;;;;;;5058619;28;20079;-69
2022/06/21 05:31:23;;;;;;;7.32;4.28;;;;;;;;;;5065554;28;20278;-69
2022/06/21 05:33:50;;;;;;;7.63;4.35;;;;;;;;;;5061652;28;20492;-68
2022/06/21 05:36:18;;;;;;;10.48;4.63;;;;;;;;;;5059582;28;20096;-69
2022/06/21 05:39:07;;;;;;;7.93;4.28;;;;;;;;;;5059217;28;20033;-68
2022/06/21 05:41:40;;;;;;;9.32;3.75;;;;;;;;;;5060280;28;20012;-69
2022/06/21 05:44:25;;;;;;;12.57;4.40;;;;;;;;;;5061024;28;20059;-68
2022/06/21 05:46:53;;;;;;;8.80;4.13;;;;;;;;;;5071552;28;20422;-68
2022/06/21 05:49:20;;;;;;;11.70;4.10;;;;;;;;;;5072390;28;20036;-69
2022/06/21 05:51:46;;;;;;;8.07;4.28;;;;;;;;;;5064139;28;20071;-69
2022/06/21 05:54:13;;;;;;;10.27;4.30;;;;;;;;;;5067439;28;20028;-69
2022/06/21 05:56:38;;;;;;;11.50;4.97;;;;;;;;;;5066114;28;20069;-68
2022/06/21 05:59:05;;;;;;;10.10;3.17;;;;;;;;;;5062917;28;20067;-69
2022/06/21 06:01:42;;;;;;;7.70;3.50;;;;;;;;;;5061229;28;20477;-69
2022/06/21 06:04:17;;;;;;;11.82;3.38;;;;;;;;;;5060617;28;20017;-69
2022/06/21 06:06:44;;;;;;;15.40;3.45;;;;;;;;;;5067185;28;20048;-68
2022/06/21 06:09:16;;;;;;;9.98;2.88;;;;;;;;;;5064072;28;20049;-68
2022/06/21 06:11:59;;;;;;;7.82;3.40;;;;;;;;;;5063673;28;20032;-69
2022/06/21 06:14:27;;;;;;;9.07;2.85;;;;;;;;;;5067496;28;20067;-68
2022/06/21 06:16:54;;;;;;;11.43;3.30;;;;;;;;;;5072438;28;20032;-69
2022/06/21 06:19:19;;;;;;;6.85;3.05;;;;;;;;;;5058660;28;20090;-69
2022/06/21 06:21:48;;;;;;;11.82;3.55;;;;;;;;;;5061288;28;20684;-68
2022/06/21 06:24:21;;;;;;;8.95;4.10;;;;;;;;;;5063285;28;20064;-69
2022/06/21 06:26:47;;;;;;;5.75;2.63;;;;;;;;;;5063209;28;20714;-68
2022/06/21 06:29:20;;;;;;;6.63;2.97;;;;;;;;;;5062080;28;20032;-68
2022/06/21 06:31:52;;;;;;;8.60;3.15;;;;;;;;;;5058072;28;20020;-67
2022/06/21 06:34:19;;;;;;;14.90;3.30;;;;;;;;;;5058933;28;20025;-68
2022/06/21 06:36:50;;;;;;;5.15;2.45;;;;;;;;;;5056612;28;20029;-68
2022/06/21 06:39:17;;;;;;;5.18;3.35;;;;;;;;;;5059721;28;20101;-68
2022/06/21 06:41:55;;;;;;;5.00;3.15;;;;;;;;;;5062211;28;20078;-68
2022/06/21 06:44:23;;;;;;;10.20;2.53;;;;;;;;;;5065771;28;20016;-68
2022/06/21 06:46:51;;;;;;;5.72;3.28;;;;;;;;;;5066400;28;20027;-68
2022/06/21 06:49:25;;;;;;;10.18;3.35;;;;;;;;;;5059257;28;20031;-68
2022/06/21 06:52:09;;;;;;;6.70;2.60;;;;;;;;;;5061605;28;20056;-68
2022/06/21 06:54:38;;;;;;;8.30;3.00;;;;;;;;;;5065599;28;20032;-69
2022/06/21 06:57:11;;;;;;;8.68;4.00;;;;;;;;;;5065840;28;20024;-69
2022/06/21 06:59:37;;;;;;;11.00;3.65;;;;;;;;;;5067850;28;20032;-69
2022/06/21 07:02:08;;;;;;;8.15;3.22;;;;;;;;;;5059772;28;20075;-69
2022/06/21 07:04:36;;;;;;;8.70;2.50;;;;;;;;;;5062769;28;20396;-69
2022/06/21 07:07:07;;;;;;;10.50;3.03;;;;;;;;;;5072204;28;20028;-69
2022/06/21 07:09:32;;;;;;;12.98;3.13;;;;;;;;;;5064698;28;20099;-68
2022/06/21 07:11:57;;;;;;;9.50;2.87;;;;;;;;;;5062173;28;20101;-69
2022/06/21 07:14:23;;;;;;;6.57;2.85;;;;;;;;;;5054867;28;20271;-69
2022/06/21 07:16:51;;;;;;;7.68;3.42;;;;;;;;;;5062536;28;20029;-69
2022/06/21 07:19:16;;;;;;;9.18;3.15;;;;;;;;;;5066095;28;20427;-69
2022/06/21 07:21:42;;;;;;;6.07;2.65;;;;;;;;;;5057839;28;20024;-68
2022/06/21 07:24:13;;;;;;;11.35;2.72;;;;;;;;;;5064949;28;20020;-69
2022/06/21 07:26:52;;;;;;;7.65;2.58;;;;;;;;;;5071862;28;20020;-69
2022/06/21 07:29:35;;;;;;;8.85;2.70;;;;;;;;;;5053760;28;20158;-69
2022/06/21 07:32:07;;;;;;;6.50;2.50;;;;;;;;;;5052253;28;20049;-69
2022/06/21 07:34:39;;;;;;;7.13;2.58;;;;;;;;;;5052263;28;20044;-69
2022/06/21 07:37:07;;;;;;;11.25;2.83;;;;;;;;;;5052033;28;20048;-70
2022/06/21 07:39:56;;;;;;;5.20;2.28;;;;;;;;;;5054785;28;20016;-68
2022/06/21 07:42:24;;;;;;;5.43;2.53;;;;;;;;;;5046894;28;20029;-69
2022/06/21 07:44:54;;;;;;;6.40;2.67;;;;;;;;;;5052106;28;20013;-69
2022/06/21 07:47:21;;;;;;;3.53;2.05;;;;;;;;;;5051008;28;20051;-69
2022/06/21 07:49:54;;;;;;;8.02;2.40;;;;;;;;;;5071662;28;20591;-69
2022/06/21 07:52:29;;;;;;;6.85;2.20;;;;;;;;;;5071771;28;20034;-69
2022/06/21 07:54:59;;;;;;;6.05;2.35;;;;;;;;;;5065280;28;20638;-69
2022/06/21 07:57:28;;;;;;;3.95;1.92;;;;;;;;;;5055166;28;20021;-70
2022/06/21 07:59:57;;;;;;;5.43;2.10;;;;;;;;;;5070254;28;20035;-69
2022/06/21 08:08:00;;;;;;;4.93;2.00;;;;;;;;;;5055525;28;20082;-69
2022/06/21 08:10:36;;;;;;;5.75;1.83;;;;;;;;;;5061896;28;20028;-69
2022/06/21 08:13:01;;;;;;;6.15;2.72;;;;;;;;;;5051215;28;20074;-70
2022/06/21 08:15:30;;;;;;;5.18;2.28;;;;;;;;;;5051301;28;20025;-69
2022/06/21 08:17:59;;;;;;;7.68;2.30;;;;;;;;;;5051900;28;20620;-69
2022/06/21 08:20:38;;;;;;;9.97;2.20;;;;;;;;;;5044419;28;20453;-69
2022/06/21 08:23:13;;;;;;;4.15;2.38;;;;;;;;;;5051221;28;20104;-69
2022/06/21 08:26:08;;;;;;;5.20;2.03;;;;;;;;;;5053311;28;20025;-69
2022/06/21 08:28:48;;;;;;;3.08;1.45;;;;;;;;;;5039133;28;20045;-69
2022/06/21 08:31:20;;;;;;;7.40;2.05;;;;;;;;;;5051218;28;20025;-69
2022/06/21 08:33:51;;;;;;;5.90;2.20;;;;;;;;;;5051377;28;20013;-69
2022/06/21 08:36:16;;;;;;;8.38;2.25;;;;;;;;;;5056820;28;20043;-69
2022/06/21 08:38:47;;;;;;;6.43;2.13;;;;;;;;;;5065459;28;20511;-69
2022/06/21 08:41:51;;;;;;;5.00;1.67;;;;;;;;;;5061426;28;20093;-69
2022/06/21 08:44:09;;;;;;;7.20;1.98;;;;;;;;;;5070766;28;20032;-69
2022/06/21 08:46:55;;;;;;;5.93;2.05;;;;;;;;;;5070788;28;20059;-69
2022/06/21 08:49:23;;;;;;;6.30;2.10;;;;;;;;;;5052851;28;20098;-69
2022/06/21 08:51:54;;;;;;;9.93;1.80;;;;;;;;;;5069325;28;20427;-70
2022/06/21 08:54:26;;;;;;;8.00;2.35;;;;;;;;;;5057726;28;20031;-69
2022/06/21 08:57:03;;;;;;;4.70;1.52;;;;;;;;;;5069233;28;20395;-69
2022/06/21 08:59:46;;;;;;;5.75;1.75;;;;;;;;;;5061164;28;20024;-69
2022/06/21 09:02:12;;;;;;;5.30;1.38;;;;;;;;;;5050663;28;20158;-69
2022/06/21 09:04:41;;;;;;;4.37;1.30;;;;;;;;;;5050363;28;20100;-70
2022/06/21 09:07:06;;;;;;;2.65;1.30;;;;;;;;;;5050332;28;20259;-68
2022/06/21 09:09:34;;;;;;;3.47;1.15;;;;;;;;;;5067322;28;20158;-69
2022/06/21 09:12:25;;;;;;;7.13;1.58;;;;;;;;;;5065837;28;20021;-69
2022/06/21 09:14:56;;;;;;;5.30;1.85;;;;;;;;;;5057990;28;20029;-69
2022/06/21 09:17:22;;;;;;;9.52;1.60;;;;;;;;;;5061010;28;20077;-69
2022/06/21 09:20:05;;;;;;;3.75;1.77;;;;;;;;;;5064177;28;20113;-69
2022/06/21 09:22:49;;;;;;;5.80;1.52;;;;;;;;;;5058895;28;20013;-69
2022/06/21 09:25:34;;;;;;;6.15;1.48;;;;;;;;;;5061909;28;20028;-70
2022/06/21 09:28:26;;;;;;;3.85;1.63;;;;;;;;;;5043509;28;20032;-69
2022/06/21 09:31:11;;;;;;;4.88;1.42;;;;;;;;;;5053489;28;20066;-69
2022/06/21 09:33:44;;;;;;;6.60;1.90;;;;;;;;;;5021292;28;20110;-69
2022/06/21 09:36:22;;;;;;;4.75;1.55;;;;;;;;;;5065530;28;20016;-69
2022/06/21 09:38:47;;;;;;;2.42;1.30;;;;;;;;;;5061618;28;20488;-69
2022/06/21 09:41:20;;;;;;;4.90;1.47;;;;;;;;;;5058602;28;20025;-69
2022/06/21 09:44:04;;;;;;;5.28;2.00;;;;;;;;;;5068778;28;20116;-69
2022/06/21 09:46:39;;;;;;;2.80;1.13;;;;;;;;;;5059229;28;20051;-70
2022/06/21 09:49:04;;;;;;;4.28;1.63;;;;;;;;;;5060521;28;20058;-70
2022/06/21 09:51:34;;;;;;;4.63;1.48;;;;;;;;;;5064698;28;20029;-69
2022/06/21 09:54:00;;;;;;;;;;;;;;;;;;5061067;28;20035;-69
2022/06/21 09:56:31;;;;;;;14.40;1.73;;;;;;;;;;5068217;28;20007;-69
2022/06/21 09:59:15;;;;;;;5.00;1.70;;;;;;;;;;5068906;28;20024;-69
2022/06/21 10:01:52;;;;;;;5.05;1.55;;;;;;;;;;5057772;28;20027;-69
2022/06/21 10:04:31;;;;;;;14.75;1.83;;;;;;;;;;5060239;28;20047;-69
2022/06/21 10:07:16;;;;;;;8.77;2.42;;;;;;;;;;5059719;28;20083;-69
2022/06/21 10:09:47;;;;;;;5.95;1.77;;;;;;;;;;5060688;28;20025;-70
2022/06/21 10:12:25;;;;;;;5.35;1.70;;;;;;;;;;5041209;28;20108;-68
2022/06/21 10:15:00;;;;;;;8.77;1.90;;;;;;;;;;5054096;28;20473;-69
2022/06/21 10:17:44;;;;;;;7.68;1.70;;;;;;;;;;5056518;28;20025;-69
2022/06/21 10:20:21;;;;;;;3.95;1.92;;;;;;;;;;5061581;28;20017;-69
2022/06/21 10:22:52;;;;;;;6.22;2.10;;;;;;;;;;5069429;28;20450;-70
2022/06/21 10:25:32;;;;;;;7.18;2.13;;;;;;;;;;5054094;28;20056;-69
2022/06/21 10:27:58;;;;;;;;;;;;;;;;;;5049963;28;20027;-69
2022/06/21 10:30:26;;;;;;;4.47;1.80;;;;;;;;;;5053748;28;19954;-69
2022/06/21 10:32:51;;;;;;;6.30;1.73;;;;;;;;;;5065040;28;20035;-69
2022/06/21 10:35:32;;;;;;;8.37;1.90;;;;;;;;;;5064046;28;20151;-69
2022/06/21 10:38:09;;;;;;;5.78;1.85;;;;;;;;;;5061850;28;20017;-69
2022/06/21 10:40:48;;;;;;;9.15;2.42;;;;;;;;;;5065735;28;20092;-69
2022/06/21 10:43:26;;;;;;;5.13;1.90;;;;;;;;;;5068754;28;20021;-69
2022/06/21 10:45:57;;;;;;;4.93;1.80;;;;;;;;;;5064972;28;20019;-69
2022/06/21 10:48:28;;;;;;;4.28;2.22;;;;;;;;;;5067257;28;20053;-69
2022/06/21 10:50:56;;;;;;;8.55;1.90;;;;;;;;;;5060573;28;20355;-69
2022/06/21 10:53:30;;;;;;;6.50;2.08;;;;;;;;;;5060723;28;20378;-69
2022/06/21 10:58:47;;;;;;;8.15;1.85;;;;;;;;;;5067228;28;20028;-69
2022/06/21 11:01:17;;;;;;;6.80;1.92;;;;;;;;;;5065259;28;20029;-69
2022/06/21 11:03:42;;;;;;;;;;;;;;;;;;5065780;28;20413;-69
2022/06/21 11:06:25;;;;;;;6.55;1.70;;;;;;;;;;5058392;28;20155;-69
2022/06/21 11:08:56;;;;;;;6.22;2.30;;;;;;;;;;5062860;28;20020;-69
2022/06/21 11:11:26;;;;;;;7.65;2.33;;;;;;;;;;5052618;28;20768;-70
2022/06/21 11:14:18;;;;;;;4.53;1.75;;;;;;;;;;5041494;28;20028;-69
2022/06/21 11:16:49;;;;;;;4.80;2.00;;;;;;;;;;5065241;28;20073;-69
2022/06/21 11:19:20;;;;;;;7.35;2.05;;;;;;;;;;5063402;28;20025;-69
2022/06/21 11:22:04;;;;;;;3.92;1.90;;;;;;;;;;5066677;28;20027;-69
2022/06/21 11:24:44;;;;;;;8.40;2.20;;;;;;;;;;5071467;28;20020;-70
2022/06/21 11:27:15;;;;;;;8.15;2.05;;;;;;;;;;5056095;28;20390;-69
2022/06/21 11:29:46;;;;;;;13.15;1.83;;;;;;;;;;5067544;28;20028;-69
2022/06/21 11:32:17;;;;;;;7.43;2.08;;;;;;;;;;5062834;28;20084;-69
2022/06/21 11:34:48;;;;;;;11.52;2.10;;;;;;;;;;5058384;28;20381;-69
2022/06/21 11:37:16;;;;;;;8.35;2.00;;;;;;;;;;5057352;28;20024;-69
2022/06/21 11:39:42;;;;;;;5.18;1.70;;;;;;;;;;5064918;28;20021;-69
2022/06/21 11:42:13;;;;;;;6.47;1.60;;;;;;;;;;5062481;28;20152;-69
2022/06/21 11:44:51;;;;;;;6.93;1.58;;;;;;;;;;5062924;28;20413;-69
2022/06/21 11:47:39;;;;;;;5.78;1.75;;;;;;;;;;5067086;28;20023;-69
2022/06/21 11:50:04;;;;;;;5.78;1.60;;;;;;;;;;5045890;28;20052;-68
2022/06/21 11:52:59;;;;;;;5.70;1.53;;;;;;;;;;5059016;28;20381;-68
2022/06/21 11:55:31;;;;;;;5.93;1.83;;;;;;;;;;4996873;28;20277;-68
2022/06/21 11:58:03;;;;;;;3.67;1.40;;;;;;;;;;5060568;28;20021;-67
2022/06/21 12:00:34;;;;;;;2.38;1.38;;;;;;;;;;5058879;28;20021;-69
2022/06/21 12:03:00;;;;;;;8.10;1.42;;;;;;;;;;5071777;28;20480;-68
2022/06/21 12:05:42;;;;;;;6.57;1.77;;;;;;;;;;5066907;28;20013;-68
2022/06/21 12:08:10;;;;;;;5.00;1.40;;;;;;;;;;5060362;28;20358;-69
2022/06/21 12:10:36;;;;;;;6.22;2.15;;;;;;;;;;5063715;28;20085;-68
2022/06/21 12:13:20;;;;;;;5.00;1.65;;;;;;;;;;5057617;28;20096;-68
2022/06/21 12:15:51;;;;;;;6.03;1.80;;;;;;;;;;5059139;28;20084;-69
2022/06/21 12:18:22;;;;;;;8.63;1.33;;;;;;;;;;5066876;28;20060;-67
2022/06/21 12:20:49;;;;;;;2.92;1.42;;;;;;;;;;5065106;28;20017;-68
2022/06/21 12:23:35;;;;;;;4.75;2.33;;;;;;;;;;5053804;28;20412;-68
2022/06/21 12:26:00;;;;;;;5.68;1.77;;;;;;;;;;5058097;28;20103;-68
2022/06/21 12:28:26;;;;;;;7.40;1.42;;;;;;;;;;5067304;28;20480;-69
2022/06/21 12:30:52;;;;;;;6.13;1.65;;;;;;;;;;5059832;28;20024;-69
2022/06/21 12:33:20;;;;;;;10.90;2.63;;;;;;;;;;5066758;28;20547;-68
2022/06/21 12:35:45;;;;;;;7.93;1.58;;;;;;;;;;5063206;28;20465;-68
2022/06/21 12:38:14;;;;;;;5.20;1.35;;;;;;;;;;5063033;28;20093;-69
2022/06/21 12:40:46;;;;;;;5.32;1.35;;;;;;;;;;5059436;28;20031;-69
2022/06/21 12:43:29;;;;;;;5.43;1.77;;;;;;;;;;5059143;28;20031;-68
2022/06/21 12:46:10;;;;;;;10.65;1.67;;;;;;;;;;5059287;28;20017;-68
2022/06/21 12:48:57;;;;;;;7.75;2.00;;;;;;;;;;5050854;28;20047;-69
2022/06/21 12:51:41;;;;;;;5.82;1.75;;;;;;;;;;5067189;28;20020;-68
2022/06/21 12:54:11;;;;;;;5.95;2.38;;;;;;;;;;5099663;22;20035;-65
2022/06/21 12:56:36;;;;;;;;;;;;;;;;;;5082009;28;20023;-65
2022/06/21 12:59:19;;;;;;;2.80;1.27;;;;;;;;;;5084112;28;19920;-66
2022/06/21 13:01:47;;;;;;;6.80;1.48;;;;;;;;;;5079260;28;20048;-68
2022/06/21 13:04:15;;;;;;;5.47;1.52;;;;;;;;;;5060195;28;20048;-68
2022/06/21 13:06:46;;;;;;;3.22;1.25;;;;;;;;;;5068689;28;20398;-68
2022/06/21 13:09:47;;;;;;;6.00;1.40;;;;;;;;;;5052647;28;20060;-68
2022/06/21 13:12:31;;;;;;;4.38;1.60;;;;;;;;;;4979614;28;20026;-68
2022/06/21 13:15:28;;;;;;;3.10;1.20;;;;;;;;;;5050871;28;20460;-68
2022/06/21 13:18:12;;;;;;;4.30;1.48;;;;;;;;;;5010634;28;20064;-68
2022/06/21 13:20:49;;;;;;;5.68;1.15;;;;;;;;;;5067681;28;20025;-68
2022/06/21 13:23:38;;;;;;;4.43;1.52;;;;;;;;;;5051917;28;20020;-68
2022/06/21 13:26:15;;;;;;;5.15;1.48;;;;;;;;;;5060210;28;20089;-69
2022/06/21 13:29:04;;;;;;;5.22;1.60;;;;;;;;;;5059168;28;20489;-68
2022/06/21 13:31:44;;;;;;;6.45;1.42;;;;;;;;;;5050166;28;20634;-69
2022/06/21 13:34:09;;;;;;;;;;;;;;;;;;5059129;28;20388;-68
2022/06/21 13:36:34;;;;;;;3.00;1.40;;;;;;;;;;5065910;28;20296;-68
2022/06/21 13:39:18;;;;;;;5.03;1.40;;;;;;;;;;5065635;28;20090;-68
2022/06/21 13:44:39;;;;;;;3.95;1.30;;;;;;;;;;5057264;28;20665;-68
2022/06/21 13:47:07;;;;;;;4.40;1.10;;;;;;;;;;5051507;28;20536;-68
2022/06/21 13:49:35;;;;;;;3.88;1.33;;;;;;;;;;5062762;28;20019;-68
2022/06/21 13:52:11;;;;;;;3.63;1.42;;;;;;;;;;5068229;28;20356;-68
2022/06/21 13:54:41;;;;;;;5.55;1.90;;;;;;;;;;5068165;28;20017;-67
2022/06/21 13:57:06;;;;;;;;;;;;;;;;;;5055339;28;20353;-67
2022/06/21 13:59:35;;;;;;;3.33;1.63;;;;;;;;;;5057464;28;20327;-68
2022/06/21 14:02:00;;;;;;;3.15;1.40;;;;;;;;;;5068525;28;20086;-68
2022/06/21 14:04:33;;;;;;;4.18;1.30;;;;;;;;;;5057109;28;20380;-67
2022/06/21 14:07:04;;;;;;;6.80;1.38;;;;;;;;;;5063888;28;20016;-67
2022/06/21 14:09:30;;;;;;;6.75;1.40;;;;;;;;;;5060813;28;20021;-67
2022/06/21 14:12:13;;;;;;;6.78;1.20;;;;;;;;;;5063781;28;20020;-68
2022/06/21 14:14:43;;;;;;;4.60;1.40;;;;;;;;;;5053972;28;20031;-68
2022/06/21 14:17:15;;;;;;;35.60;2.17;;;;;;;;;;5064627;28;20070;-68
2022/06/21 14:19:40;;;;;;;7.78;1.30;;;;;;;;;;5055258;28;20026;-67
2022/06/21 14:22:10;;;;;;;3.80;1.02;;;;;;;;;;5046611;28;20028;-67
2022/06/21 14:25:01;;;;;;;116.75;6.10;;;;;;;;;;5063149;28;20013;-68
2022/06/21 14:27:31;;;;;;;7.43;1.40;;;;;;;;;;5027387;28;20028;-68
2022/06/21 14:30:00;;;;;;;4.68;1.63;;;;;;;;;;5054044;28;20024;-67
2022/06/21 14:32:37;;;;;;;3.50;1.48;;;;;;;;;;5060453;28;20096;-68
2022/06/21 14:35:22;;;;;;;6.38;1.35;;;;;;;;;;5053380;28;20473;-67
2022/06/21 14:37:52;;;;;;;3.88;1.40;;;;;;;;;;5053282;28;20051;-68
2022/06/21 14:40:29;;;;;;;4.40;1.58;;;;;;;;;;5060430;28;20025;-68
2022/06/21 14:42:57;;;;;;;3.42;1.85;;;;;;;;;;5060038;28;20174;-68
2022/06/21 14:45:37;;;;;;;6.93;1.75;;;;;;;;;;5063214;28;20013;-68
2022/06/21 14:48:12;;;;;;;6.15;1.77;;;;;;;;;;5062810;28;20013;-67
2022/06/21 14:50:52;;;;;;;6.97;1.75;;;;;;;;;;5069677;28;20077;-67
2022/06/21 14:53:17;;;;;;;;;;;;;;;;;;5066525;28;20025;-67
2022/06/21 14:56:15;;;;;;;2.00;1.25;;;;;;;;;;5058132;28;19920;-68
2022/06/21 14:58:46;;;;;;;6.47;1.17;;;;;;;;;;4996767;28;20519;-68
2022/06/21 15:01:30;;;;;;;2.53;1.40;;;;;;;;;;5064394;28;20112;-68
2022/06/21 15:03:58;;;;;;;3.95;1.42;;;;;;;;;;5070042;28;20017;-70
2022/06/21 15:06:32;;;;;;;4.32;1.20;;;;;;;;;;5071093;28;20021;-68
2022/06/21 15:09:02;;;;;;;2.45;1.30;;;;;;;;;;5052871;28;20500;-68
2022/06/21 15:14:21;;;;;;;5.90;1.45;;;;;;;;;;5058132;28;20043;-68
2022/06/21 15:16:56;;;;;;;5.75;1.50;;;;;;;;;;5060787;28;20021;-69
2022/06/21 15:22:21;;;;;;;4.43;1.50;;;;;;;;;;5065628;28;20558;-65
2022/06/21 15:24:47;;;;;;;3.35;1.70;;;;;;;;;;5060561;28;20020;-68
2022/06/21 15:27:15;;;;;;;6.05;1.30;;;;;;;;;;5061202;28;20057;-68